Weather observations for the past three days for
Otis Air National Guard Base
Imperial (Metric)
Date Time (edt) Wind (mph) Vis. (mi.) Weather Sky Cond. Temperature (ºF) Relative Humidity Wind Chill (°F) Heat Index (°F) Pressure Precipitation (in)
Air Dwpt 6 hour altimeter (in) sea level (mb) 1 hr 3 hr 6 hr
Max. Min.
09 14:56 S 20 G 25 10.00 Mostly Cloudy BKN100 60.8 50 68% 29.94 0.0
09 13:56 S 21 G 25 10.00 Overcast and Breezy OVC100 62.6 48.2 60% 29.96 0.0
09 12:56 S 18 G 24 10.00 Overcast FEW032 OVC100 62.6 46.4 56% 29.96 0.0
09 11:56 S 17 G 21 10.00 Mostly Cloudy BKN110 60.8 46.4 59% 29.97 0.0
09 10:56 S 12 10.00 Overcast OVC100 57.2 46.4 67% 29.98 0.0
09 09:56 S 9 10.00 Overcast OVC085 53.6 46.4 77% 29.99 0.0
09 08:56 SE 10 10.00 Partly Cloudy FEW012 SCT085 53.6 48.2 82% 30 0.0
09 07:56 Vrbl 5 8.00 Light Rain OVC065 48.2 48.2 100% 47 30 0.0
09 06:56 S 5 10.00 Light Rain OVC065 48.2 46.4 94% 47 30.02 0.0
09 05:45 S 6 10.00 Overcast OVC065 46.4 46.4 100% 44 29.98 0.0
09 04:55 NE 6 10.00 Overcast OVC065 44.6 42.8 93% 42 29.98 0.0
09 03:55 Calm 10.00 Overcast OVC090 44.6 41 87% 29.98 0.0
09 02:55 Calm 10.00 Overcast OVC090 42.8 41 93% 29.97 0.0
09 01:45 Calm 10.00 Fair CLR 39.2 37.4 93% 29.97 0.0
09 00:55 Calm 10.00 Fair CLR 42.8 39.2 87% 29.97 0.0
08 23:45 Calm 10.00 Fair CLR 42.8 39.2 87% 29.96 0.0
08 22:45 Calm 10.00 Fair CLR 46.4 41 82% 29.95 0.0
08 21:45 SW 8 10.00 Fair CLR 46.4 41 82% 43 29.93 0.0
08 20:45 SW 9 10.00 Fair CLR 48.2 42.8 82% 45 29.9 0.0
08 19:45 SW 9 10.00 Fair CLR 51.8 41 67% 29.86 0.0
08 18:56 SW 12 10.00 A Few Clouds FEW070 53.6 41 63% 29.84 0.0
08 17:56 SW 12 10.00 Mostly Cloudy BKN070 55.4 37.4 51% 29.84 0.0
08 16:56 SW 12 G 21 10.00 Mostly Cloudy BKN070 53.6 39.2 58% 29.83 0.0
08 15:56 SW 23 G 31 10.00 Mostly Cloudy and Breezy BKN080 57.2 41 55% 29.81 0.0
08 14:56 SW 22 G 30 10.00 Fair and Breezy CLR 59 35.6 42% 29.8 0.0
08 13:56 SW 17 G 28 10.00 Partly Cloudy SCT090 59 33.8 39% 29.81 0.0
08 12:56 SW 17 G 25 10.00 A Few Clouds FEW090 59 30.2 34% 29.82 0.0
08 11:45 SW 13 10.00 Fair CLR 59 30.2 34% 29.84 0.0
08 10:45 W 12 10.00 Fair CLR 57.2 28.4 33% 29.86 0.0
08 09:45 W 6 10.00 Mostly Cloudy BKN090 55.4 28.4 36% 29.86 0.0
08 08:45 W 6 10.00 Mostly Cloudy BKN095 51.8 32 47% 29.86 0.0
08 07:45 W 5 10.00 Overcast OVC100 50 33.8 54% 49 29.86 0.0
08 06:45 NW 5 10.00 Fair CLR 46.4 33.8 62% 45 29.84 0.0
08 05:55 NW 6 10.00 Fair CLR 42.8 30.2 61% 40 29.83 0.0
08 04:55 NW 7 10.00 Fair CLR 41 30.2 66% 37 29.81 0.0
08 03:55 NW 3 10.00 Fair CLR 44.6 30.2 57% 29.78 0.0
08 02:55 NW 5 10.00 Fair CLR 46.4 30.2 53% 45 29.78 0.0
08 01:55 NW 7 10.00 Fair CLR 48.2 30.2 50% 46 29.76 0.0
08 00:55 NW 10 10.00 Fair CLR 48.2 30.2 50% 44 29.77 0.0
07 23:55 NW 7 10.00 Fair CLR 48.2 30.2 50% 46 29.77 0.0
07 22:55 NW 8 10.00 Fair CLR 48.2 33.8 58% 45 29.78 0.0
07 21:55 NW 7 10.00 Fair CLR 48.2 33.8 58% 46 29.78 0.0
07 20:55 NW 6 10.00 Fair CLR 50 39.2 67% 48 29.75 0.0
07 19:56 SW 5 10.00 Fair CLR 51.8 42.8 72% 29.72 0.0
07 18:56 SW 12 10.00 Fair CLR 57.2 39.2 51% 29.71 0.0
07 17:56 SW 16 10.00 Fair CLR 59 37.4 45% 29.7 0.0
07 16:56 SW 17 10.00 Fair CLR 60.8 39.2 45% 29.69 0.0
07 15:56 SW 15 10.00 Fair CLR 60.8 42.8 52% 29.7 0.0
07 14:56 SW 12 10.00 Partly Cloudy FEW031 SCT050 60.8 46.4 59% 29.72 0.0
07 13:56 SW 10 10.00 Partly Cloudy FEW035 SCT050 60.8 44.6 55% 29.74 0.0
07 12:55 SW 5 10.00 Mostly Cloudy BKN033 BKN042 60.8 44.6 55% 29.75 0.0
07 11:56 W 9 10.00 Mostly Cloudy BKN029 57.2 44.6 63% 29.77 0.0
07 10:56 NW 7 10.00 Mostly Cloudy SCT017 BKN100 53.6 46.4 77% 29.78 0.0
07 09:56 NW 9 10.00 Overcast FEW031 OVC095 50 46.4 88% 47 29.79 0.0
07 08:56 NW 5 10.00 Light Rain FEW016 OVC070 48.2 46.4 94% 47 29.79 0.0
07 07:56 N 7 8.00 Light Rain BKN080 OVC065 48.2 46.4 94% 46 29.78 0.0
07 06:56 N 7 8.00 Light Rain SCT047 BKN065 OVC080 50 48.2 94% 48 29.76 0.0
07 05:45 NW 10 6.00 Light Rain Fog/Mist SCT008 BKN049 OVC070 51.8 51.8 100% 29.73 0.0
07 04:55 S 5 6.00 Light Rain Fog/Mist OVC004 51.8 51.8 100% 29.74 0.0
07 03:45 SW 6 2.50 Light Rain Fog/Mist OVC003 51.8 51.8 100% 29.72 0.0
07 02:55 SW 7 1.25 Fog/Mist OVC003 51.8 51.8 100% 29.74 0.0
07 01:55 SW 13 3.00 Fog/Mist OVC003 53.6 51.8 94% 29.74 0.0
07 00:55 SW 12 2.00 Fog/Mist OVC003 53.6 53.6 100% 29.76 0.0
06 23:55 SW 16 3.00 Fog/Mist OVC004 53.6 53.6 100% 29.77 0.0
06 22:45 SW 15 6.00 Fog/Mist OVC004 55.4 55.4 100% 29.77 0.0
06 21:55 SW 21 6.00 Fog/Mist and Breezy OVC006 57.2 55.4 94% 29.79 0.0
06 20:55 SW 20 6.00 Light Rain Fog/Mist OVC006 57.2 55.4 94% 29.79 0.0
06 19:55 S 22 1.25 Rain Fog/Mist and Breezy OVC006 57.2 55.4 94% 29.78 0.0
06 18:55 S 22 2.50 Rain Fog/Mist and Breezy BKN010 OVC015 57.2 55.4 94% 29.8 0.0
06 17:55 S 18 10.00 Overcast BKN029 BKN100 OVC110 60.8 55.4 83% 29.8 0.0
06 16:55 S 21 10.00 Light Rain and Breezy BKN032 BKN090 OVC110 62.6 55.4 77% 29.82 0.0
Date Time (edt) Wind (mph) Vis. (mi.) Weather Sky Cond. Air Dwpt Max. Min. Relative Humidity Wind Chill (°F) Heat Index (°F) altimeter (in) sea level (mb) 1 hr 3 hr 6 hr
6 hour
Temperature (ºF) Pressure Precipitation (in)